createdAt,value
2022-08-30T00:00:28.258Z,17.05
2022-08-30T00:05:36.198Z,17.02
2022-08-30T00:10:46.379Z,17.00
2022-08-30T00:15:54.090Z,16.98
2022-08-30T00:21:02.018Z,16.97
2022-08-30T00:26:10.009Z,16.96
2022-08-30T00:31:17.945Z,16.95
2022-08-30T00:36:25.173Z,16.95
2022-08-30T00:41:32.249Z,16.94
2022-08-30T00:46:39.437Z,16.95
2022-08-30T00:51:46.732Z,16.95
2022-08-30T00:56:54.837Z,16.95
2022-08-30T01:02:03.590Z,16.95
2022-08-30T01:07:11.391Z,16.96
2022-08-30T01:12:18.970Z,16.96
2022-08-30T01:17:26.825Z,16.97
2022-08-30T01:22:39.718Z,16.96
2022-08-30T01:27:52.732Z,16.97
2022-08-30T01:33:05.208Z,16.96
2022-08-30T01:38:13.537Z,16.97
2022-08-30T01:43:21.553Z,16.98
2022-08-30T01:48:31.189Z,16.98
2022-08-30T01:53:38.660Z,16.99
2022-08-30T01:58:46.768Z,17.00
2022-08-30T02:03:55.936Z,17.02
2022-08-30T02:09:03.342Z,17.02
2022-08-30T02:14:10.885Z,17.03
2022-08-30T02:19:18.400Z,17.04
2022-08-30T02:24:25.718Z,17.04
2022-08-30T02:29:32.703Z,17.05
2022-08-30T02:34:39.990Z,17.06
2022-08-30T02:39:47.205Z,17.08
2022-08-30T02:44:54.978Z,17.10
2022-08-30T02:50:03.645Z,17.12
2022-08-30T02:55:13.356Z,17.14
2022-08-30T03:00:24.518Z,17.16
2022-08-30T03:05:32.370Z,17.17
2022-08-30T03:10:40.151Z,17.20
2022-08-30T03:15:51.017Z,17.22
2022-08-30T03:20:58.037Z,17.24
2022-08-30T03:26:06.852Z,17.25
2022-08-30T03:31:14.910Z,17.27
2022-08-30T03:36:22.408Z,17.28
2022-08-30T03:41:29.961Z,17.30
2022-08-30T03:46:37.704Z,17.32
2022-08-30T03:51:45.451Z,17.34
2022-08-30T03:56:52.558Z,17.35
2022-08-30T04:02:00.928Z,17.38
2022-08-30T04:07:09.667Z,17.39
2022-08-30T04:12:22.677Z,17.40
2022-08-30T04:17:30.569Z,17.42
2022-08-30T04:22:38.266Z,17.43
2022-08-30T04:27:45.680Z,17.45
2022-08-30T04:32:56.762Z,17.47
2022-08-30T04:38:05.961Z,17.48
2022-08-30T04:43:13.365Z,17.50
2022-08-30T04:48:20.753Z,17.52
2022-08-30T04:53:28.101Z,17.55
2022-08-30T04:58:35.250Z,17.56
2022-08-30T05:03:42.482Z,17.58
2022-08-30T05:08:49.901Z,17.60
2022-08-30T05:13:57.253Z,17.61
2022-08-30T05:19:04.513Z,17.63
2022-08-30T05:24:11.754Z,17.65
2022-08-30T05:29:19.202Z,17.68
2022-08-30T05:34:26.401Z,17.70
2022-08-30T05:39:51.292Z,17.73
2022-08-30T05:45:02.381Z,17.77
2022-08-30T05:50:11.108Z,17.80
2022-08-30T05:55:19.393Z,17.85
2022-08-30T06:00:27.382Z,17.88
2022-08-30T06:05:34.927Z,17.91
2022-08-30T06:10:42.797Z,17.96
2022-08-30T06:15:51.417Z,18.01
2022-08-30T06:20:59.164Z,18.05
2022-08-30T06:26:10.715Z,18.09
2022-08-30T06:31:19.956Z,18.13
2022-08-30T06:36:28.534Z,18.16
2022-08-30T06:41:37.686Z,18.21
2022-08-30T06:46:51.274Z,18.25
2022-08-30T06:51:58.826Z,18.30
2022-08-30T06:57:06.401Z,18.36
2022-08-30T07:02:14.357Z,18.42
2022-08-30T07:07:22.423Z,18.47
2022-08-30T07:12:30.031Z,18.52
2022-08-30T07:17:55.178Z,18.58
2022-08-30T07:23:03.023Z,18.65
2022-08-30T07:28:11.482Z,18.72
2022-08-30T07:33:19.508Z,18.80
2022-08-30T07:38:28.177Z,18.89
2022-08-30T07:43:38.862Z,18.98
2022-08-30T07:48:46.407Z,19.05
2022-08-30T07:53:54.603Z,19.08
2022-08-30T07:59:02.352Z,19.10
2022-08-30T08:04:10.058Z,19.14
2022-08-30T08:09:20.124Z,19.18
2022-08-30T08:14:28.779Z,19.25
2022-08-30T08:19:36.104Z,19.32
2022-08-30T08:24:43.776Z,19.38
2022-08-30T08:29:51.119Z,19.45
2022-08-30T08:34:58.597Z,19.51
2022-08-30T08:40:07.869Z,19.58
2022-08-30T08:45:22.260Z,19.63
2022-08-30T08:50:32.605Z,19.67
2022-08-30T08:55:51.899Z,19.69
2022-08-30T09:01:00.231Z,19.69
2022-08-30T09:06:17.778Z,19.69
2022-08-30T09:11:29.958Z,19.68
2022-08-30T09:17:05.207Z,19.67
2022-08-30T09:22:28.312Z,19.68
2022-08-30T09:27:38.325Z,19.71
2022-08-30T09:32:52.923Z,19.74
2022-08-30T09:38:08.729Z,19.78
2022-08-30T09:43:25.809Z,19.79
2022-08-30T09:48:38.500Z,19.79
2022-08-30T09:54:16.645Z,19.80
2022-08-30T09:59:38.640Z,19.82
2022-08-30T10:04:56.015Z,19.84
2022-08-30T10:10:12.385Z,19.86
2022-08-30T10:15:27.634Z,19.89
2022-08-30T10:20:40.408Z,19.95
2022-08-30T10:25:52.551Z,20.01
2022-08-30T10:31:03.946Z,20.08
2022-08-30T10:36:15.042Z,20.16
2022-08-30T10:41:30.274Z,20.26
2022-08-30T10:46:47.735Z,20.34
2022-08-30T10:52:00.968Z,20.39
2022-08-30T10:57:08.499Z,20.40
2022-08-30T11:02:33.752Z,20.37
2022-08-30T11:07:53.307Z,20.33
2022-08-30T11:13:05.736Z,20.30
2022-08-30T11:18:19.229Z,20.24
2022-08-30T11:23:33.258Z,20.17
2022-08-30T11:29:08.640Z,20.11
2022-08-30T11:34:36.700Z,20.04
2022-08-30T11:40:04.218Z,19.99
2022-08-30T11:45:52.922Z,19.93
2022-08-30T11:51:08.044Z,19.86
2022-08-30T11:56:21.903Z,19.81
2022-08-30T12:01:50.362Z,19.77
2022-08-30T12:07:05.961Z,19.75
2022-08-30T12:12:35.242Z,19.75
2022-08-30T12:18:32.182Z,19.76
2022-08-30T12:23:44.622Z,19.78
2022-08-30T12:28:53.680Z,19.81
2022-08-30T12:34:03.657Z,19.84
2022-08-30T12:39:17.992Z,19.88
2022-08-30T12:44:28.217Z,19.94
2022-08-30T12:49:38.516Z,19.99
2022-08-30T12:54:46.455Z,20.05
2022-08-30T12:59:59.683Z,20.09
2022-08-30T13:05:40.333Z,20.13
2022-08-30T13:11:08.063Z,20.16
2022-08-30T13:16:36.849Z,20.19
2022-08-30T13:21:52.903Z,20.22
2022-08-30T13:27:06.988Z,20.25
2022-08-30T13:32:14.435Z,20.27
2022-08-30T13:42:52.232Z,20.36
2022-08-30T13:47:59.682Z,20.41
2022-08-30T13:53:09.513Z,20.45
2022-08-30T13:58:18.475Z,20.48
2022-08-30T14:03:26.931Z,20.52
2022-08-30T14:08:46.302Z,20.54
2022-08-30T14:19:24.238Z,20.60
2022-08-30T14:24:31.584Z,20.65
2022-08-30T14:29:39.672Z,20.73
2022-08-30T14:34:47.040Z,20.83
2022-08-30T14:39:55.345Z,20.94
2022-08-30T14:45:03.008Z,21.01
2022-08-30T14:50:12.034Z,21.05
2022-08-30T14:55:19.845Z,21.08
2022-08-30T15:00:27.657Z,21.10
2022-08-30T15:05:35.370Z,21.13
2022-08-30T15:10:43.831Z,21.15
2022-08-30T15:15:51.241Z,21.15
2022-08-30T15:21:00.260Z,21.15
2022-08-30T15:26:08.259Z,21.13
2022-08-30T15:31:17.638Z,21.10
2022-08-30T15:36:25.650Z,21.07
2022-08-30T15:41:33.843Z,21.04
2022-08-30T15:46:48.231Z,21.00
2022-08-30T15:51:55.796Z,20.99
2022-08-30T15:57:02.962Z,20.97
2022-08-30T16:02:13.557Z,20.95
2022-08-30T16:07:21.029Z,20.93
2022-08-30T16:12:28.313Z,20.91
2022-08-30T16:17:36.091Z,20.88
2022-08-30T16:22:46.124Z,20.85
2022-08-30T16:27:54.394Z,20.81
2022-08-30T16:33:02.318Z,20.76
2022-08-30T16:38:09.556Z,20.72
2022-08-30T16:43:17.208Z,20.67
2022-08-30T16:48:25.606Z,20.62
2022-08-30T16:53:34.757Z,20.56
2022-08-30T16:58:42.568Z,20.49
2022-08-30T17:03:50.398Z,20.43
2022-08-30T17:08:58.103Z,20.36
2022-08-30T17:14:06.336Z,20.28
2022-08-30T17:19:15.591Z,20.21
2022-08-30T17:24:32.916Z,20.12
2022-08-30T17:29:40.475Z,20.02
2022-08-30T17:34:47.925Z,19.92
2022-08-30T17:39:56.390Z,19.82
2022-08-30T17:45:07.060Z,19.72
2022-08-30T17:50:16.568Z,19.62
2022-08-30T17:55:27.563Z,19.52
2022-08-30T18:00:38.341Z,19.42
2022-08-30T18:05:46.817Z,19.31
2022-08-30T18:10:54.584Z,19.20
2022-08-30T18:16:02.724Z,19.10
2022-08-30T18:21:16.758Z,19.00
2022-08-30T18:26:24.500Z,18.88
2022-08-30T18:31:32.729Z,18.75
2022-08-30T18:36:39.939Z,18.65
2022-08-30T18:41:47.418Z,18.56
2022-08-30T18:46:56.350Z,18.45
2022-08-30T18:52:06.605Z,18.36
2022-08-30T18:57:15.039Z,18.26
2022-08-30T19:02:22.852Z,18.15
2022-08-30T19:07:37.659Z,18.05
2022-08-30T19:12:47.188Z,17.94
2022-08-30T19:17:54.598Z,17.84
2022-08-30T19:23:10.021Z,17.75
2022-08-30T19:28:17.485Z,17.67
2022-08-30T19:33:25.393Z,17.60
2022-08-30T19:38:35.383Z,17.53
2022-08-30T19:43:43.502Z,17.46
2022-08-30T19:48:50.895Z,17.39
2022-08-30T19:53:59.169Z,17.32
2022-08-30T19:59:06.790Z,17.25
2022-08-30T20:04:14.880Z,17.18
2022-08-30T20:09:22.870Z,17.11
2022-08-30T20:14:30.385Z,17.04
2022-08-30T20:19:37.967Z,16.97
2022-08-30T20:24:45.715Z,16.90
2022-08-30T20:29:53.235Z,16.83
2022-08-30T20:35:00.749Z,16.77
2022-08-30T20:40:12.310Z,16.72
2022-08-30T20:45:23.348Z,16.67
2022-08-30T20:50:39.346Z,16.62
2022-08-30T20:55:48.543Z,16.58
2022-08-30T21:00:56.542Z,16.53
2022-08-30T21:06:03.927Z,16.49
2022-08-30T21:11:11.520Z,16.43
2022-08-30T21:16:22.214Z,16.36
2022-08-30T21:21:30.846Z,16.28
2022-08-30T21:26:38.524Z,16.20
2022-08-30T21:31:45.758Z,16.12
2022-08-30T21:36:54.568Z,16.03
2022-08-30T21:42:01.978Z,15.94
2022-08-30T21:47:09.658Z,15.86
2022-08-30T21:52:17.092Z,15.78
2022-08-30T21:57:24.168Z,15.71
2022-08-30T22:02:31.310Z,15.63
2022-08-30T22:07:38.970Z,15.56
2022-08-30T22:12:46.252Z,15.49
2022-08-30T22:17:55.090Z,15.42
2022-08-30T22:23:02.404Z,15.37
2022-08-30T22:28:09.930Z,15.33
2022-08-30T22:33:17.995Z,15.28
2022-08-30T22:38:25.672Z,15.23
2022-08-30T22:43:32.803Z,15.18
2022-08-30T22:48:43.402Z,15.12
2022-08-30T22:53:51.490Z,15.08
2022-08-30T22:58:59.174Z,15.02
2022-08-30T23:04:07.828Z,14.96
2022-08-30T23:09:16.280Z,14.90
2022-08-30T23:14:23.420Z,14.82
2022-08-30T23:19:31.096Z,14.74
2022-08-30T23:24:55.990Z,14.66
2022-08-30T23:30:21.328Z,14.56
2022-08-30T23:35:46.150Z,14.45
2022-08-30T23:41:10.659Z,14.33
2022-08-30T23:46:35.262Z,14.21
2022-08-30T23:52:00.399Z,14.09
2022-08-30T23:57:25.819Z,13.97
